sensor_id;sensor_type;location;lat;lon;timestamp;P1;durP1;ratioP1;P2;durP2;ratioP2
14052;SDS011;7101;51.600;7.310;2023-02-01T00:00:32;24.48;;;12.25;;
14052;SDS011;7101;51.600;7.310;2023-02-01T00:02:59;30.98;;;12.55;;
14052;SDS011;7101;51.600;7.310;2023-02-01T00:05:26;26.20;;;13.35;;
14052;SDS011;7101;51.600;7.310;2023-02-01T00:07:54;28.02;;;11.50;;
14052;SDS011;7101;51.600;7.310;2023-02-01T00:10:21;34.28;;;12.75;;
14052;SDS011;7101;51.600;7.310;2023-02-01T00:12:47;31.88;;;12.60;;
14052;SDS011;7101;51.600;7.310;2023-02-01T00:15:15;32.45;;;11.75;;
14052;SDS011;7101;51.600;7.310;2023-02-01T00:17:45;28.20;;;11.70;;
14052;SDS011;7101;51.600;7.310;2023-02-01T00:20:11;29.63;;;10.85;;
14052;SDS011;7101;51.600;7.310;2023-02-01T00:22:39;25.40;;;10.32;;
14052;SDS011;7101;51.600;7.310;2023-02-01T00:25:08;26.90;;;10.10;;
14052;SDS011;7101;51.600;7.310;2023-02-01T00:30:14;37.08;;;9.40;;
14052;SDS011;7101;51.600;7.310;2023-02-01T00:32:42;27.27;;;9.48;;
14052;SDS011;7101;51.600;7.310;2023-02-01T00:35:11;21.02;;;8.55;;
14052;SDS011;7101;51.600;7.310;2023-02-01T00:37:38;25.15;;;7.68;;
14052;SDS011;7101;51.600;7.310;2023-02-01T00:40:05;20.88;;;7.40;;
14052;SDS011;7101;51.600;7.310;2023-02-01T00:42:33;21.33;;;7.05;;
14052;SDS011;7101;51.600;7.310;2023-02-01T00:45:00;21.70;;;7.25;;
14052;SDS011;7101;51.600;7.310;2023-02-01T00:47:27;19.60;;;6.10;;
14052;SDS011;7101;51.600;7.310;2023-02-01T00:49:55;22.08;;;6.30;;
14052;SDS011;7101;51.600;7.310;2023-02-01T00:52:23;19.65;;;5.68;;
14052;SDS011;7101;51.600;7.310;2023-02-01T00:54:50;20.58;;;5.40;;
14052;SDS011;7101;51.600;7.310;2023-02-01T00:57:17;20.20;;;5.13;;
14052;SDS011;7101;51.600;7.310;2023-02-01T00:59:44;22.35;;;5.65;;
14052;SDS011;7101;51.600;7.310;2023-02-01T01:02:11;15.77;;;4.88;;
14052;SDS011;7101;51.600;7.310;2023-02-01T01:04:39;23.00;;;5.13;;
14052;SDS011;7101;51.600;7.310;2023-02-01T01:07:06;18.02;;;4.75;;
14052;SDS011;7101;51.600;7.310;2023-02-01T01:09:34;18.65;;;4.55;;
14052;SDS011;7101;51.600;7.310;2023-02-01T01:12:01;15.00;;;4.22;;
14052;SDS011;7101;51.600;7.310;2023-02-01T01:14:27;18.00;;;3.97;;
14052;SDS011;7101;51.600;7.310;2023-02-01T01:16:54;20.30;;;4.65;;
14052;SDS011;7101;51.600;7.310;2023-02-01T01:19:21;17.98;;;4.22;;
14052;SDS011;7101;51.600;7.310;2023-02-01T01:21:48;16.63;;;4.60;;
14052;SDS011;7101;51.600;7.310;2023-02-01T01:24:14;14.95;;;3.97;;
14052;SDS011;7101;51.600;7.310;2023-02-01T01:26:43;15.40;;;4.03;;
14052;SDS011;7101;51.600;7.310;2023-02-01T01:29:09;19.83;;;3.97;;
14052;SDS011;7101;51.600;7.310;2023-02-01T01:31:36;16.48;;;4.40;;
14052;SDS011;7101;51.600;7.310;2023-02-01T01:34:03;16.55;;;3.80;;
14052;SDS011;7101;51.600;7.310;2023-02-01T01:36:30;16.40;;;4.13;;
14052;SDS011;7101;51.600;7.310;2023-02-01T01:38:57;15.75;;;3.60;;
14052;SDS011;7101;51.600;7.310;2023-02-01T01:41:25;18.42;;;3.80;;
14052;SDS011;7101;51.600;7.310;2023-02-01T01:43:58;15.90;;;3.60;;
14052;SDS011;7101;51.600;7.310;2023-02-01T01:46:26;18.67;;;3.83;;
14052;SDS011;7101;51.600;7.310;2023-02-01T01:48:56;13.55;;;3.85;;
14052;SDS011;7101;51.600;7.310;2023-02-01T01:51:28;26.05;;;4.60;;
14052;SDS011;7101;51.600;7.310;2023-02-01T01:53:59;18.88;;;4.50;;
14052;SDS011;7101;51.600;7.310;2023-02-01T01:56:31;15.75;;;4.20;;
14052;SDS011;7101;51.600;7.310;2023-02-01T01:59:02;17.58;;;3.85;;
14052;SDS011;7101;51.600;7.310;2023-02-01T02:01:30;13.90;;;3.72;;
14052;SDS011;7101;51.600;7.310;2023-02-01T02:03:57;22.88;;;4.38;;
14052;SDS011;7101;51.600;7.310;2023-02-01T02:06:28;16.38;;;4.45;;
14052;SDS011;7101;51.600;7.310;2023-02-01T02:09:03;21.85;;;4.53;;
14052;SDS011;7101;51.600;7.310;2023-02-01T02:11:30;19.83;;;4.38;;
14052;SDS011;7101;51.600;7.310;2023-02-01T02:13:58;20.33;;;4.88;;
14052;SDS011;7101;51.600;7.310;2023-02-01T02:19:32;22.27;;;5.03;;
14052;SDS011;7101;51.600;7.310;2023-02-01T02:25:24;12.00;;;4.05;;
14052;SDS011;7101;51.600;7.310;2023-02-01T02:28:13;18.17;;;5.13;;
14052;SDS011;7101;51.600;7.310;2023-02-01T02:34:04;18.77;;;4.40;;
14052;SDS011;7101;51.600;7.310;2023-02-01T02:36:43;23.10;;;4.97;;
14052;SDS011;7101;51.600;7.310;2023-02-01T02:39:19;18.58;;;5.22;;
14052;SDS011;7101;51.600;7.310;2023-02-01T02:42:02;20.08;;;4.75;;
14052;SDS011;7101;51.600;7.310;2023-02-01T02:44:54;19.20;;;4.95;;
14052;SDS011;7101;51.600;7.310;2023-02-01T02:47:45;15.75;;;4.50;;
14052;SDS011;7101;51.600;7.310;2023-02-01T02:50:20;19.52;;;5.03;;
14052;SDS011;7101;51.600;7.310;2023-02-01T02:53:12;19.60;;;5.30;;
14052;SDS011;7101;51.600;7.310;2023-02-01T02:56:02;25.75;;;4.72;;
14052;SDS011;7101;51.600;7.310;2023-02-01T02:58:49;17.35;;;4.70;;
14052;SDS011;7101;51.600;7.310;2023-02-01T03:01:34;22.98;;;4.15;;
14052;SDS011;7101;51.600;7.310;2023-02-01T03:04:18;16.85;;;4.60;;
14052;SDS011;7101;51.600;7.310;2023-02-01T03:06:47;17.70;;;4.55;;
14052;SDS011;7101;51.600;7.310;2023-02-01T03:09:16;19.67;;;4.30;;
14052;SDS011;7101;51.600;7.310;2023-02-01T03:11:48;14.02;;;3.70;;
14052;SDS011;7101;51.600;7.310;2023-02-01T03:14:36;19.45;;;4.47;;
14052;SDS011;7101;51.600;7.310;2023-02-01T03:17:09;24.55;;;4.57;;
14052;SDS011;7101;51.600;7.310;2023-02-01T03:19:39;11.82;;;4.35;;
14052;SDS011;7101;51.600;7.310;2023-02-01T03:22:15;19.48;;;3.70;;
14052;SDS011;7101;51.600;7.310;2023-02-01T03:24:46;17.35;;;4.10;;
14052;SDS011;7101;51.600;7.310;2023-02-01T03:27:18;16.80;;;3.60;;
14052;SDS011;7101;51.600;7.310;2023-02-01T03:29:51;19.95;;;4.35;;
14052;SDS011;7101;51.600;7.310;2023-02-01T03:32:21;15.70;;;3.88;;
14052;SDS011;7101;51.600;7.310;2023-02-01T03:34:49;17.20;;;3.70;;
14052;SDS011;7101;51.600;7.310;2023-02-01T03:37:20;15.50;;;3.88;;
14052;SDS011;7101;51.600;7.310;2023-02-01T03:39:52;21.80;;;4.43;;
14052;SDS011;7101;51.600;7.310;2023-02-01T03:42:24;18.40;;;4.15;;
14052;SDS011;7101;51.600;7.310;2023-02-01T03:44:57;20.33;;;4.30;;
14052;SDS011;7101;51.600;7.310;2023-02-01T03:47:30;19.67;;;4.20;;
14052;SDS011;7101;51.600;7.310;2023-02-01T03:50:02;22.25;;;4.13;;
14052;SDS011;7101;51.600;7.310;2023-02-01T03:52:35;21.50;;;5.10;;
14052;SDS011;7101;51.600;7.310;2023-02-01T03:55:06;16.90;;;3.83;;
14052;SDS011;7101;51.600;7.310;2023-02-01T03:57:37;15.63;;;3.88;;
14052;SDS011;7101;51.600;7.310;2023-02-01T04:00:09;16.13;;;4.10;;
14052;SDS011;7101;51.600;7.310;2023-02-01T04:02:42;19.20;;;4.47;;
14052;SDS011;7101;51.600;7.310;2023-02-01T04:05:09;15.30;;;4.40;;
14052;SDS011;7101;51.600;7.310;2023-02-01T04:07:38;16.05;;;4.38;;
14052;SDS011;7101;51.600;7.310;2023-02-01T04:10:07;19.08;;;4.65;;
14052;SDS011;7101;51.600;7.310;2023-02-01T04:12:35;19.42;;;4.70;;
14052;SDS011;7101;51.600;7.310;2023-02-01T04:15:03;18.10;;;4.38;;
14052;SDS011;7101;51.600;7.310;2023-02-01T04:17:30;18.35;;;4.55;;
14052;SDS011;7101;51.600;7.310;2023-02-01T04:19:57;15.80;;;3.65;;
14052;SDS011;7101;51.600;7.310;2023-02-01T04:22:24;19.42;;;4.10;;
14052;SDS011;7101;51.600;7.310;2023-02-01T04:24:52;18.13;;;4.30;;
14052;SDS011;7101;51.600;7.310;2023-02-01T04:27:19;21.50;;;4.10;;
14052;SDS011;7101;51.600;7.310;2023-02-01T04:29:46;22.23;;;4.32;;
14052;SDS011;7101;51.600;7.310;2023-02-01T04:32:14;24.85;;;4.90;;
14052;SDS011;7101;51.600;7.310;2023-02-01T04:34:41;20.98;;;4.68;;
14052;SDS011;7101;51.600;7.310;2023-02-01T04:37:09;19.80;;;4.13;;
14052;SDS011;7101;51.600;7.310;2023-02-01T04:39:36;23.00;;;4.35;;
14052;SDS011;7101;51.600;7.310;2023-02-01T04:42:04;21.02;;;4.50;;
14052;SDS011;7101;51.600;7.310;2023-02-01T04:44:32;18.13;;;4.72;;
14052;SDS011;7101;51.600;7.310;2023-02-01T04:46:59;18.42;;;4.07;;
14052;SDS011;7101;51.600;7.310;2023-02-01T04:49:25;24.17;;;4.95;;
14052;SDS011;7101;51.600;7.310;2023-02-01T04:51:52;19.75;;;4.43;;
14052;SDS011;7101;51.600;7.310;2023-02-01T04:54:20;23.85;;;4.28;;
14052;SDS011;7101;51.600;7.310;2023-02-01T04:56:47;17.50;;;4.07;;
14052;SDS011;7101;51.600;7.310;2023-02-01T04:59:15;15.45;;;3.80;;
14052;SDS011;7101;51.600;7.310;2023-02-01T05:01:42;15.90;;;3.97;;
14052;SDS011;7101;51.600;7.310;2023-02-01T05:04:09;17.27;;;4.07;;
14052;SDS011;7101;51.600;7.310;2023-02-01T05:06:36;17.98;;;4.45;;
14052;SDS011;7101;51.600;7.310;2023-02-01T05:09:02;19.60;;;4.10;;
14052;SDS011;7101;51.600;7.310;2023-02-01T05:11:29;19.45;;;4.43;;
14052;SDS011;7101;51.600;7.310;2023-02-01T05:14:15;16.05;;;4.20;;
14052;SDS011;7101;51.600;7.310;2023-02-01T05:16:42;23.45;;;4.22;;
14052;SDS011;7101;51.600;7.310;2023-02-01T05:19:08;16.13;;;4.72;;
14052;SDS011;7101;51.600;7.310;2023-02-01T05:21:35;19.17;;;4.57;;
14052;SDS011;7101;51.600;7.310;2023-02-01T05:24:04;20.00;;;4.78;;
14052;SDS011;7101;51.600;7.310;2023-02-01T05:26:47;24.98;;;4.45;;
14052;SDS011;7101;51.600;7.310;2023-02-01T05:29:16;22.30;;;4.90;;
14052;SDS011;7101;51.600;7.310;2023-02-01T05:31:44;21.83;;;4.72;;
14052;SDS011;7101;51.600;7.310;2023-02-01T05:34:12;15.95;;;4.30;;
14052;SDS011;7101;51.600;7.310;2023-02-01T05:36:40;16.35;;;3.65;;
14052;SDS011;7101;51.600;7.310;2023-02-01T05:39:07;19.75;;;4.50;;
14052;SDS011;7101;51.600;7.310;2023-02-01T05:41:35;19.90;;;4.32;;
14052;SDS011;7101;51.600;7.310;2023-02-01T05:44:04;16.88;;;4.43;;
14052;SDS011;7101;51.600;7.310;2023-02-01T05:46:34;20.38;;;4.32;;
14052;SDS011;7101;51.600;7.310;2023-02-01T05:49:01;23.08;;;4.05;;
14052;SDS011;7101;51.600;7.310;2023-02-01T05:51:28;26.02;;;4.68;;
14052;SDS011;7101;51.600;7.310;2023-02-01T05:53:55;19.55;;;4.43;;
14052;SDS011;7101;51.600;7.310;2023-02-01T05:56:23;20.48;;;4.20;;
14052;SDS011;7101;51.600;7.310;2023-02-01T05:58:50;23.95;;;5.15;;
14052;SDS011;7101;51.600;7.310;2023-02-01T06:01:17;21.73;;;5.32;;
14052;SDS011;7101;51.600;7.310;2023-02-01T06:03:52;22.75;;;4.28;;
14052;SDS011;7101;51.600;7.310;2023-02-01T06:06:18;21.40;;;4.63;;
14052;SDS011;7101;51.600;7.310;2023-02-01T06:08:52;20.77;;;4.80;;
14052;SDS011;7101;51.600;7.310;2023-02-01T06:11:19;18.52;;;4.22;;
14052;SDS011;7101;51.600;7.310;2023-02-01T06:13:46;25.10;;;4.68;;
14052;SDS011;7101;51.600;7.310;2023-02-01T06:16:13;20.50;;;4.63;;
14052;SDS011;7101;51.600;7.310;2023-02-01T06:18:41;17.20;;;4.25;;
14052;SDS011;7101;51.600;7.310;2023-02-01T06:21:11;24.38;;;4.90;;
14052;SDS011;7101;51.600;7.310;2023-02-01T06:23:42;20.08;;;4.10;;
14052;SDS011;7101;51.600;7.310;2023-02-01T06:26:09;18.70;;;4.75;;
14052;SDS011;7101;51.600;7.310;2023-02-01T06:28:38;16.08;;;4.82;;
14052;SDS011;7101;51.600;7.310;2023-02-01T06:31:05;21.10;;;5.13;;
14052;SDS011;7101;51.600;7.310;2023-02-01T06:33:32;23.88;;;4.60;;
14052;SDS011;7101;51.600;7.310;2023-02-01T06:36:01;20.10;;;4.70;;
14052;SDS011;7101;51.600;7.310;2023-02-01T06:38:36;22.17;;;4.53;;
14052;SDS011;7101;51.600;7.310;2023-02-01T06:41:04;14.93;;;4.15;;
14052;SDS011;7101;51.600;7.310;2023-02-01T06:43:31;21.63;;;4.15;;
14052;SDS011;7101;51.600;7.310;2023-02-01T06:46:05;22.02;;;4.35;;
14052;SDS011;7101;51.600;7.310;2023-02-01T06:48:33;26.25;;;5.10;;
14052;SDS011;7101;51.600;7.310;2023-02-01T06:51:00;19.92;;;4.45;;
14052;SDS011;7101;51.600;7.310;2023-02-01T06:53:28;22.25;;;4.60;;
14052;SDS011;7101;51.600;7.310;2023-02-01T06:55:58;15.15;;;4.45;;
14052;SDS011;7101;51.600;7.310;2023-02-01T06:58:28;16.50;;;4.10;;
14052;SDS011;7101;51.600;7.310;2023-02-01T07:03:30;21.50;;;4.82;;
14052;SDS011;7101;51.600;7.310;2023-02-01T07:05:57;21.73;;;4.75;;
14052;SDS011;7101;51.600;7.310;2023-02-01T07:08:26;19.38;;;4.68;;
14052;SDS011;7101;51.600;7.310;2023-02-01T07:10:53;22.70;;;5.25;;
14052;SDS011;7101;51.600;7.310;2023-02-01T07:13:21;20.25;;;5.03;;
14052;SDS011;7101;51.600;7.310;2023-02-01T07:15:48;24.80;;;4.93;;
14052;SDS011;7101;51.600;7.310;2023-02-01T07:18:19;26.80;;;5.03;;
14052;SDS011;7101;51.600;7.310;2023-02-01T07:20:50;29.20;;;4.88;;
14052;SDS011;7101;51.600;7.310;2023-02-01T07:23:22;19.70;;;4.45;;
14052;SDS011;7101;51.600;7.310;2023-02-01T07:25:56;17.88;;;4.00;;
14052;SDS011;7101;51.600;7.310;2023-02-01T07:28:27;12.55;;;3.92;;
14052;SDS011;7101;51.600;7.310;2023-02-01T07:31:02;24.50;;;4.78;;
14052;SDS011;7101;51.600;7.310;2023-02-01T07:33:31;29.23;;;5.93;;
14052;SDS011;7101;51.600;7.310;2023-02-01T07:36:00;23.23;;;5.20;;
14052;SDS011;7101;51.600;7.310;2023-02-01T07:38:30;27.88;;;5.53;;
14052;SDS011;7101;51.600;7.310;2023-02-01T07:40:58;51.35;;;23.15;;
14052;SDS011;7101;51.600;7.310;2023-02-01T07:43:27;24.05;;;5.50;;
14052;SDS011;7101;51.600;7.310;2023-02-01T07:45:54;21.95;;;4.45;;
14052;SDS011;7101;51.600;7.310;2023-02-01T07:48:23;24.75;;;4.93;;
14052;SDS011;7101;51.600;7.310;2023-02-01T07:50:56;19.95;;;5.18;;
14052;SDS011;7101;51.600;7.310;2023-02-01T07:53:26;22.08;;;5.03;;
14052;SDS011;7101;51.600;7.310;2023-02-01T07:56:00;26.83;;;9.77;;
14052;SDS011;7101;51.600;7.310;2023-02-01T07:58:29;23.30;;;8.07;;
14052;SDS011;7101;51.600;7.310;2023-02-01T08:00:56;24.83;;;7.63;;
14052;SDS011;7101;51.600;7.310;2023-02-01T08:03:53;26.50;;;8.23;;
14052;SDS011;7101;51.600;7.310;2023-02-01T08:06:27;26.48;;;5.38;;
14052;SDS011;7101;51.600;7.310;2023-02-01T08:08:57;15.80;;;4.85;;
14052;SDS011;7101;51.600;7.310;2023-02-01T08:11:26;23.42;;;5.28;;
14052;SDS011;7101;51.600;7.310;2023-02-01T08:13:55;20.88;;;5.43;;
14052;SDS011;7101;51.600;7.310;2023-02-01T08:16:22;24.77;;;5.22;;
14052;SDS011;7101;51.600;7.310;2023-02-01T08:18:50;21.80;;;5.05;;
14052;SDS011;7101;51.600;7.310;2023-02-01T08:21:26;18.58;;;5.10;;
14052;SDS011;7101;51.600;7.310;2023-02-01T08:24:04;25.40;;;5.75;;
14052;SDS011;7101;51.600;7.310;2023-02-01T08:26:32;18.77;;;4.97;;
14052;SDS011;7101;51.600;7.310;2023-02-01T08:29:01;21.17;;;5.10;;
14052;SDS011;7101;51.600;7.310;2023-02-01T08:31:31;22.63;;;5.13;;
14052;SDS011;7101;51.600;7.310;2023-02-01T08:34:02;31.15;;;5.88;;
14052;SDS011;7101;51.600;7.310;2023-02-01T08:36:30;21.27;;;5.28;;
14052;SDS011;7101;51.600;7.310;2023-02-01T08:38:57;21.42;;;5.15;;
14052;SDS011;7101;51.600;7.310;2023-02-01T08:41:25;18.88;;;4.50;;
14052;SDS011;7101;51.600;7.310;2023-02-01T08:43:55;22.27;;;5.40;;
14052;SDS011;7101;51.600;7.310;2023-02-01T08:46:24;22.38;;;4.85;;
14052;SDS011;7101;51.600;7.310;2023-02-01T08:48:51;19.40;;;4.55;;
14052;SDS011;7101;51.600;7.310;2023-02-01T08:51:19;29.55;;;5.63;;
14052;SDS011;7101;51.600;7.310;2023-02-01T08:53:48;21.83;;;5.20;;
14052;SDS011;7101;51.600;7.310;2023-02-01T08:56:16;23.08;;;5.35;;
14052;SDS011;7101;51.600;7.310;2023-02-01T08:58:47;20.98;;;5.00;;
14052;SDS011;7101;51.600;7.310;2023-02-01T09:01:15;23.00;;;5.22;;
14052;SDS011;7101;51.600;7.310;2023-02-01T09:03:50;21.05;;;5.57;;
14052;SDS011;7101;51.600;7.310;2023-02-01T09:06:18;22.33;;;4.68;;
14052;SDS011;7101;51.600;7.310;2023-02-01T09:08:46;22.58;;;5.50;;
14052;SDS011;7101;51.600;7.310;2023-02-01T09:11:14;21.83;;;5.43;;
14052;SDS011;7101;51.600;7.310;2023-02-01T09:13:44;20.98;;;4.40;;
14052;SDS011;7101;51.600;7.310;2023-02-01T09:16:12;23.35;;;4.82;;
14052;SDS011;7101;51.600;7.310;2023-02-01T09:18:39;24.13;;;5.47;;
14052;SDS011;7101;51.600;7.310;2023-02-01T09:21:08;24.58;;;5.47;;
14052;SDS011;7101;51.600;7.310;2023-02-01T09:23:36;23.23;;;6.10;;
14052;SDS011;7101;51.600;7.310;2023-02-01T09:26:03;22.90;;;5.75;;
14052;SDS011;7101;51.600;7.310;2023-02-01T09:28:32;22.27;;;5.70;;
14052;SDS011;7101;51.600;7.310;2023-02-01T09:31:00;23.48;;;5.30;;
14052;SDS011;7101;51.600;7.310;2023-02-01T09:33:27;19.27;;;4.65;;
14052;SDS011;7101;51.600;7.310;2023-02-01T09:35:56;22.20;;;5.45;;
14052;SDS011;7101;51.600;7.310;2023-02-01T09:38:25;24.10;;;5.95;;
14052;SDS011;7101;51.600;7.310;2023-02-01T09:40:54;20.00;;;4.70;;
14052;SDS011;7101;51.600;7.310;2023-02-01T09:43:25;23.80;;;5.43;;
14052;SDS011;7101;51.600;7.310;2023-02-01T09:46:10;22.23;;;4.80;;
14052;SDS011;7101;51.600;7.310;2023-02-01T09:48:48;26.38;;;5.55;;
14052;SDS011;7101;51.600;7.310;2023-02-01T09:51:20;25.05;;;5.47;;
14052;SDS011;7101;51.600;7.310;2023-02-01T09:53:56;19.95;;;5.03;;
14052;SDS011;7101;51.600;7.310;2023-02-01T09:56:29;25.52;;;5.05;;
14052;SDS011;7101;51.600;7.310;2023-02-01T09:59:12;22.52;;;4.97;;
14052;SDS011;7101;51.600;7.310;2023-02-01T10:01:51;24.40;;;5.68;;
14052;SDS011;7101;51.600;7.310;2023-02-01T10:04:20;20.45;;;5.40;;
14052;SDS011;7101;51.600;7.310;2023-02-01T10:06:59;21.63;;;5.22;;
14052;SDS011;7101;51.600;7.310;2023-02-01T10:09:47;17.77;;;5.68;;
14052;SDS011;7101;51.600;7.310;2023-02-01T10:12:42;19.73;;;5.28;;
14052;SDS011;7101;51.600;7.310;2023-02-01T10:21:19;28.25;;;5.55;;
14052;SDS011;7101;51.600;7.310;2023-02-01T10:24:02;22.13;;;5.78;;
14052;SDS011;7101;51.600;7.310;2023-02-01T10:26:41;18.92;;;4.90;;
14052;SDS011;7101;51.600;7.310;2023-02-01T10:29:12;17.40;;;4.90;;
14052;SDS011;7101;51.600;7.310;2023-02-01T10:31:43;21.70;;;5.72;;
14052;SDS011;7101;51.600;7.310;2023-02-01T10:34:15;21.13;;;5.05;;
14052;SDS011;7101;51.600;7.310;2023-02-01T10:36:50;22.75;;;5.45;;
14052;SDS011;7101;51.600;7.310;2023-02-01T10:39:20;27.55;;;4.72;;
14052;SDS011;7101;51.600;7.310;2023-02-01T10:41:49;18.92;;;5.15;;
14052;SDS011;7101;51.600;7.310;2023-02-01T10:44:16;21.83;;;5.35;;
14052;SDS011;7101;51.600;7.310;2023-02-01T10:46:47;25.48;;;5.40;;
14052;SDS011;7101;51.600;7.310;2023-02-01T10:49:16;20.60;;;4.70;;
14052;SDS011;7101;51.600;7.310;2023-02-01T10:51:45;23.58;;;5.47;;
14052;SDS011;7101;51.600;7.310;2023-02-01T10:54:18;18.27;;;4.88;;
14052;SDS011;7101;51.600;7.310;2023-02-01T10:56:46;21.58;;;5.30;;
14052;SDS011;7101;51.600;7.310;2023-02-01T10:59:17;16.77;;;4.25;;
14052;SDS011;7101;51.600;7.310;2023-02-01T11:01:47;19.00;;;4.60;;
14052;SDS011;7101;51.600;7.310;2023-02-01T11:04:15;19.80;;;4.85;;
14052;SDS011;7101;51.600;7.310;2023-02-01T11:06:46;18.13;;;4.57;;
14052;SDS011;7101;51.600;7.310;2023-02-01T11:09:19;20.20;;;5.85;;
14052;SDS011;7101;51.600;7.310;2023-02-01T11:11:56;19.75;;;5.15;;
14052;SDS011;7101;51.600;7.310;2023-02-01T11:14:30;18.80;;;4.63;;
14052;SDS011;7101;51.600;7.310;2023-02-01T11:17:01;21.23;;;5.00;;
14052;SDS011;7101;51.600;7.310;2023-02-01T11:19:43;19.85;;;5.30;;
14052;SDS011;7101;51.600;7.310;2023-02-01T11:22:10;16.45;;;4.38;;
14052;SDS011;7101;51.600;7.310;2023-02-01T11:24:41;19.35;;;5.10;;
14052;SDS011;7101;51.600;7.310;2023-02-01T11:27:14;16.02;;;4.50;;
14052;SDS011;7101;51.600;7.310;2023-02-01T11:29:43;22.83;;;5.15;;
14052;SDS011;7101;51.600;7.310;2023-02-01T11:32:14;20.52;;;4.43;;
14052;SDS011;7101;51.600;7.310;2023-02-01T11:34:45;20.90;;;4.75;;
14052;SDS011;7101;51.600;7.310;2023-02-01T11:37:16;25.35;;;4.95;;
14052;SDS011;7101;51.600;7.310;2023-02-01T11:39:52;20.20;;;4.88;;
14052;SDS011;7101;51.600;7.310;2023-02-01T11:42:22;18.65;;;4.75;;
14052;SDS011;7101;51.600;7.310;2023-02-01T11:44:50;18.85;;;4.95;;
14052;SDS011;7101;51.600;7.310;2023-02-01T11:47:21;19.25;;;4.65;;
14052;SDS011;7101;51.600;7.310;2023-02-01T11:49:50;20.27;;;4.72;;
14052;SDS011;7101;51.600;7.310;2023-02-01T11:52:21;21.30;;;5.03;;
14052;SDS011;7101;51.600;7.310;2023-02-01T11:55:00;20.50;;;4.88;;
14052;SDS011;7101;51.600;7.310;2023-02-01T11:57:51;17.20;;;4.30;;
14052;SDS011;7101;51.600;7.310;2023-02-01T12:00:34;19.10;;;4.65;;
14052;SDS011;7101;51.600;7.310;2023-02-01T12:06:18;19.95;;;4.80;;
14052;SDS011;7101;51.600;7.310;2023-02-01T12:09:00;21.10;;;5.47;;
14052;SDS011;7101;51.600;7.310;2023-02-01T12:11:43;17.02;;;4.97;;
14052;SDS011;7101;51.600;7.310;2023-02-01T12:14:23;20.95;;;5.35;;
14052;SDS011;7101;51.600;7.310;2023-02-01T12:17:07;18.70;;;4.35;;
14052;SDS011;7101;51.600;7.310;2023-02-01T12:19:58;18.23;;;5.03;;
14052;SDS011;7101;51.600;7.310;2023-02-01T12:22:43;18.80;;;4.80;;
14052;SDS011;7101;51.600;7.310;2023-02-01T12:25:23;17.58;;;4.72;;
14052;SDS011;7101;51.600;7.310;2023-02-01T12:31:07;17.88;;;4.60;;
14052;SDS011;7101;51.600;7.310;2023-02-01T12:33:52;20.17;;;4.70;;
14052;SDS011;7101;51.600;7.310;2023-02-01T12:36:32;23.98;;;5.32;;
14052;SDS011;7101;51.600;7.310;2023-02-01T12:39:09;20.55;;;5.25;;
14052;SDS011;7101;51.600;7.310;2023-02-01T12:41:48;17.85;;;4.85;;
14052;SDS011;7101;51.600;7.310;2023-02-01T12:44:24;25.42;;;5.82;;
14052;SDS011;7101;51.600;7.310;2023-02-01T12:46:59;22.40;;;5.10;;
14052;SDS011;7101;51.600;7.310;2023-02-01T12:49:43;19.55;;;5.03;;
14052;SDS011;7101;51.600;7.310;2023-02-01T12:52:14;20.40;;;4.45;;
14052;SDS011;7101;51.600;7.310;2023-02-01T12:54:46;21.50;;;5.30;;
14052;SDS011;7101;51.600;7.310;2023-02-01T12:57:17;17.85;;;4.40;;
14052;SDS011;7101;51.600;7.310;2023-02-01T12:59:51;22.10;;;4.70;;
14052;SDS011;7101;51.600;7.310;2023-02-01T13:02:25;16.83;;;4.60;;
14052;SDS011;7101;51.600;7.310;2023-02-01T13:04:59;22.95;;;5.10;;
14052;SDS011;7101;51.600;7.310;2023-02-01T13:07:39;18.95;;;4.28;;
14052;SDS011;7101;51.600;7.310;2023-02-01T13:10:12;18.67;;;3.92;;
14052;SDS011;7101;51.600;7.310;2023-02-01T13:12:43;14.73;;;3.83;;
14052;SDS011;7101;51.600;7.310;2023-02-01T13:15:16;24.58;;;4.43;;
14052;SDS011;7101;51.600;7.310;2023-02-01T13:17:48;19.25;;;4.22;;
14052;SDS011;7101;51.600;7.310;2023-02-01T13:20:20;16.00;;;3.88;;
14052;SDS011;7101;51.600;7.310;2023-02-01T13:22:52;18.98;;;4.32;;
14052;SDS011;7101;51.600;7.310;2023-02-01T13:25:26;19.27;;;3.80;;
14052;SDS011;7101;51.600;7.310;2023-02-01T13:28:00;16.42;;;4.03;;
14052;SDS011;7101;51.600;7.310;2023-02-01T13:30:34;16.60;;;3.85;;
14052;SDS011;7101;51.600;7.310;2023-02-01T13:33:22;14.52;;;3.63;;
14052;SDS011;7101;51.600;7.310;2023-02-01T13:42:11;15.85;;;3.75;;
14052;SDS011;7101;51.600;7.310;2023-02-01T13:44:43;15.60;;;4.00;;
14052;SDS011;7101;51.600;7.310;2023-02-01T13:47:17;17.17;;;3.55;;
14052;SDS011;7101;51.600;7.310;2023-02-01T13:49:51;15.77;;;3.50;;
14052;SDS011;7101;51.600;7.310;2023-02-01T13:52:28;17.33;;;3.35;;
14052;SDS011;7101;51.600;7.310;2023-02-01T13:55:16;21.27;;;4.15;;
14052;SDS011;7101;51.600;7.310;2023-02-01T13:58:00;16.45;;;3.38;;
14052;SDS011;7101;51.600;7.310;2023-02-01T14:00:31;20.60;;;4.15;;
14052;SDS011;7101;51.600;7.310;2023-02-01T14:03:06;15.60;;;3.58;;
14052;SDS011;7101;51.600;7.310;2023-02-01T14:06:01;13.38;;;3.30;;
14052;SDS011;7101;51.600;7.310;2023-02-01T14:08:44;15.43;;;3.83;;
14052;SDS011;7101;51.600;7.310;2023-02-01T14:17:42;16.15;;;3.33;;
14052;SDS011;7101;51.600;7.310;2023-02-01T14:23:16;17.83;;;4.93;;
14052;SDS011;7101;51.600;7.310;2023-02-01T14:25:47;15.93;;;4.25;;
14052;SDS011;7101;51.600;7.310;2023-02-01T14:28:28;17.08;;;4.63;;
14052;SDS011;7101;51.600;7.310;2023-02-01T14:30:58;16.27;;;4.20;;
14052;SDS011;7101;51.600;7.310;2023-02-01T14:33:26;17.85;;;3.90;;
14052;SDS011;7101;51.600;7.310;2023-02-01T14:36:05;16.88;;;4.22;;
14052;SDS011;7101;51.600;7.310;2023-02-01T14:38:35;19.83;;;3.95;;
14052;SDS011;7101;51.600;7.310;2023-02-01T14:41:23;22.88;;;4.78;;
14052;SDS011;7101;51.600;7.310;2023-02-01T14:47:08;20.25;;;4.18;;
14052;SDS011;7101;51.600;7.310;2023-02-01T14:50:02;20.77;;;5.60;;
14052;SDS011;7101;51.600;7.310;2023-02-01T14:52:50;24.98;;;6.47;;
14052;SDS011;7101;51.600;7.310;2023-02-01T14:55:25;26.65;;;8.10;;
14052;SDS011;7101;51.600;7.310;2023-02-01T14:57:57;22.08;;;5.97;;
14052;SDS011;7101;51.600;7.310;2023-02-01T15:00:26;17.17;;;7.53;;
14052;SDS011;7101;51.600;7.310;2023-02-01T15:02:56;19.38;;;4.20;;
14052;SDS011;7101;51.600;7.310;2023-02-01T15:05:44;17.23;;;4.20;;
14052;SDS011;7101;51.600;7.310;2023-02-01T15:08:14;14.43;;;3.83;;
14052;SDS011;7101;51.600;7.310;2023-02-01T15:10:44;19.73;;;3.75;;
14052;SDS011;7101;51.600;7.310;2023-02-01T15:13:20;16.25;;;3.78;;
14052;SDS011;7101;51.600;7.310;2023-02-01T15:16:01;21.48;;;3.88;;
14052;SDS011;7101;51.600;7.310;2023-02-01T15:18:30;23.25;;;4.13;;
14052;SDS011;7101;51.600;7.310;2023-02-01T15:20:59;20.05;;;4.03;;
14052;SDS011;7101;51.600;7.310;2023-02-01T15:23:28;15.52;;;3.90;;
14052;SDS011;7101;51.600;7.310;2023-02-01T15:25:55;18.50;;;4.20;;
14052;SDS011;7101;51.600;7.310;2023-02-01T15:28:22;17.67;;;4.70;;
14052;SDS011;7101;51.600;7.310;2023-02-01T15:30:57;15.25;;;4.22;;
14052;SDS011;7101;51.600;7.310;2023-02-01T15:33:26;21.55;;;4.43;;
14052;SDS011;7101;51.600;7.310;2023-02-01T15:36:07;20.80;;;3.97;;
14052;SDS011;7101;51.600;7.310;2023-02-01T15:38:38;24.52;;;4.57;;
14052;SDS011;7101;51.600;7.310;2023-02-01T15:41:09;22.58;;;4.35;;
14052;SDS011;7101;51.600;7.310;2023-02-01T15:43:40;20.48;;;4.47;;
14052;SDS011;7101;51.600;7.310;2023-02-01T15:46:11;25.42;;;4.65;;
14052;SDS011;7101;51.600;7.310;2023-02-01T15:48:46;17.48;;;3.42;;
14052;SDS011;7101;51.600;7.310;2023-02-01T15:51:18;14.52;;;3.83;;
14052;SDS011;7101;51.600;7.310;2023-02-01T15:53:49;19.20;;;4.25;;
14052;SDS011;7101;51.600;7.310;2023-02-01T15:56:22;16.15;;;3.95;;
14052;SDS011;7101;51.600;7.310;2023-02-01T15:58:52;17.90;;;4.00;;
14052;SDS011;7101;51.600;7.310;2023-02-01T16:01:22;20.85;;;4.53;;